VHHHRPLI

Guest
Details From VHHH - Hong Kong Intl
To RPLI - Laoag Intl
Flight Number -
Tags Generated
Created
Modified
Stats Distance 449 nm / 831 km
Max Altitude 0 ft / 0 m
Waypoints 3
Social Downloads 0
Likes 0
Share VATSIM

Download

Looking for another format? Having issues loading an existing format? Contact us
Advertisement - Login to hide

Notes

Generated

Route

VHHH LAO RPLI

ID Type Via Altitude (ft/m) Position (lat/lon) Dist (leg/tot) Name
O VHHH APT - 0 / 0 22.29628 / 113.89799 - / 0 nm
LAO VOR - 0 / 0 18.17881 / 120.52908 447 / 447 nm LAOAG VOR-DME
O RPLI APT - 0 / 0 18.16364 / 120.52987 0 / 448 nm

Altitude Profile

Advertisement - Login to hide

Weather


0- 5 10 15 20 25 30 35+ Temperature / °C

Clouds and Precipitation
Forecast for 2018-12-16 00:00 UTC. Updated 5 hours ago

Ground ~20,000 ft ~40,000 ft Winds

VHHH

Details ICAO VHHH (HKG)
Name Hong Kong Intl
Region Hong Kong
Timezone Unknown
Stats Elevation 25 ft / 8 m (AMSL)
Location 22.308900° 113.915000°
Runways 2
Magnetic Variation 2.887° W

METAR

VHHH 160230Z 33010KT 4800 -RA BR FEW020 SCT035 17/15 Q1025 NOSIG

Decode

TAF

TAF VHHH 152300Z 1600/1706 34010KT 7000 FEW035 TX22/1607Z TX21/1706Z TN15/1623Z TEMPO 1616/1702 04010KT

Decode

Departure Runways

ID Width Length Bearing (true/mag) Surface Threshold Overrun Markings Lighting
07L 197 ft / 60 m 12,461 ft / 3,798 m 70.77° / 73.66° ASPHALT 558 ft / 170 m 974 ft / 297 m PREC-APP CENTERLINE EDGE THRESHOLD ALSF-II TDZ
07R 197 ft / 60 m 12,458 ft / 3,797 m 70.79° / 73.68° ASPHALT 525 ft / 160 m 886 ft / 270 m PREC-APP CENTERLINE EDGE THRESHOLD ALSF-II TDZ
25L 197 ft / 60 m 12,458 ft / 3,797 m 250.80° / 253.69° ASPHALT 0 ft / 0 m 981 ft / 299 m PREC-APP CENTERLINE EDGE THRESHOLD ALSF-II TDZ
25R 197 ft / 60 m 12,461 ft / 3,798 m 250.78° / 253.67° ASPHALT 571 ft / 174 m 978 ft / 298 m PREC-APP CENTERLINE EDGE THRESHOLD ALSF-II TDZ

RPLI

Details ICAO RPLI (LAO)
Name LAOAG INTL
Region Philippines
Timezone Asia/Manila (UTC+8.0)
Stats Elevation 24 ft / 7 m (AMSL)
Location 18.176100° 120.531000°
Runways 1
Magnetic Variation 2.957° W

METAR

RPLI 160200Z 34004KT 9999 FEW018 30/21 Q1015 NOSIG RMK A2997

Decode

TAF

TAF RPLI 152300Z 1600/1624 12006KT 9999 FEW018 TEMPO 1600/1606 08012G24KT

Decode

Destination Runways

ID Width Length Bearing (true/mag) Surface Threshold Overrun Markings Lighting
01 148 ft / 45 m 9,181 ft / 2,798 m 5.41° / 8.36° CONCRETE 1,181 ft / 360 m 0 ft / 0 m PREC-APP CENTERLINE EDGE THRESHOLD
19 148 ft / 45 m 9,181 ft / 2,798 m 185.41° / 188.36° CONCRETE 0 ft / 0 m 0 ft / 0 m PREC-APP CENTERLINE EDGE THRESHOLD

Popular Alternatives